Time;durP1;ratioP1;P1;durP2;ratioP2;P2;SDS_P1;SDS_P2;PMS_P1;PMS_P2;Temp;Humidity;BMP_temperature;BMP_pressure;BME280_temperature;BME280_humidity;BME280_pressure;Samples;Min_cycle;Max_cycle;Signal;HPM_P1;HPM_P2
2022/05/16 00:00:31;;;;;;;9.80;4.55;;;;;;;16.02;58.90;101421.00;4915711;29;20390;-75
2022/05/16 00:03:00;;;;;;;10.10;3.95;;;;;;;15.89;59.91;101425.59;4915369;29;20159;-76
2022/05/16 00:05:26;;;;;;;9.98;3.42;;;;;;;15.99;59.43;101420.38;4881369;29;20044;-76
2022/05/16 00:07:53;;;;;;;8.07;3.17;;;;;;;15.78;60.24;101423.75;4914843;29;20067;-77
2022/05/16 00:10:19;;;;;;;10.18;3.20;;;;;;;15.68;60.49;101425.41;4915132;29;20036;-76
2022/05/16 00:12:44;;;;;;;5.30;3.10;;;;;;;15.60;60.80;101418.84;4896730;29;20740;-75
2022/05/16 00:15:12;;;;;;;7.65;2.85;;;;;;;15.72;60.41;101421.53;4914475;29;20036;-75
2022/05/16 00:17:39;;;;;;;11.88;3.67;;;;;;;15.46;61.64;101418.09;4914510;29;20117;-76
2022/05/16 00:20:06;;;;;;;11.05;3.65;;;;;;;15.49;61.28;101422.34;4897579;29;20237;-75
2022/05/16 00:22:32;;;;;;;10.55;3.22;;;;;;;15.40;61.78;101415.81;4914814;29;20052;-75
2022/05/16 00:24:57;;;;;;;7.82;3.10;;;;;;;15.44;61.74;101414.63;4915667;29;20036;-75
2022/05/16 00:27:23;;;;;;;8.00;3.17;;;;;;;15.39;62.02;101414.13;4915511;29;20048;-75
2022/05/16 00:29:48;;;;;;;12.55;3.75;;;;;;;15.34;62.13;101407.38;4914245;29;20401;-75
2022/05/16 00:32:15;;;;;;;7.78;3.30;;;;;;;15.36;61.90;101405.41;4915375;29;20048;-75
2022/05/16 00:34:40;;;;;;;8.43;2.97;;;;;;;15.34;62.22;101410.06;4914955;29;20044;-77
2022/05/16 00:37:06;;;;;;;7.95;3.50;;;;;;;15.12;63.55;101403.59;4914629;29;20063;-76
2022/05/16 00:39:32;;;;;;;10.18;3.78;;;;;;;15.28;62.13;101403.31;4914220;29;20127;-78
2022/05/16 00:41:57;;;;;;;7.50;3.50;;;;;;;15.21;62.80;101399.34;4913495;29;20036;-76
2022/05/16 00:44:24;;;;;;;9.30;3.30;;;;;;;15.14;63.04;101387.34;4913439;29;20067;-74
2022/05/16 00:46:50;;;;;;;14.38;3.65;;;;;;;15.18;62.65;101387.03;4895945;29;20044;-75
2022/05/16 00:49:37;;;;;;;11.38;3.33;;;;;;;15.21;62.49;101386.81;4895091;29;20210;-76
2022/05/16 00:52:17;;;;;;;11.02;3.45;;;;;;;15.12;63.01;101390.16;4895766;29;20135;-76
2022/05/16 00:54:57;;;;;;;7.88;3.50;;;;;;;15.17;62.78;101388.00;4912958;29;20048;-75
2022/05/16 00:57:27;;;;;;;7.25;3.17;;;;;;;15.12;62.90;101390.16;4913133;29;20062;-75
2022/05/16 00:59:58;;;;;;;15.60;4.50;;;;;;;15.01;63.58;101388.28;4897907;29;20048;-75
2022/05/16 01:05:11;;;;;;;5.65;3.47;;;;;;;14.99;63.48;101386.66;4915334;29;20075;-75
2022/05/16 01:07:40;;;;;;;7.43;2.97;;;;;;;15.11;63.00;101390.25;4897510;29;20068;-76
2022/05/16 01:10:09;;;;;;;7.38;3.88;;;;;;;14.89;64.16;101375.72;4914045;29;20064;-75
2022/05/16 01:12:40;;;;;;;12.82;4.10;;;;;;;14.92;64.12;101371.97;4927802;29;20043;-74
2022/05/16 01:15:34;;;;;;;8.27;3.85;;;;;;;14.79;64.41;101366.63;4913552;29;20058;-75
2022/05/16 01:18:00;;;;;;;6.43;3.53;;;;;;;14.85;63.74;101370.69;4897002;29;20362;-75
2022/05/16 01:21:14;;;;;;;9.30;4.22;;;;;;;14.77;64.95;101372.09;4913991;29;20048;-75
2022/05/16 01:23:51;;;;;;;8.85;4.03;;;;;;;14.69;64.69;101362.88;4799720;29;20124;-76
2022/05/16 01:26:20;;;;;;;7.13;3.60;;;;;;;14.69;64.69;101354.84;4800404;29;20096;-75
2022/05/16 01:28:46;;;;;;;8.73;4.00;;;;;;;14.74;64.43;101355.34;4801206;29;20050;-76
2022/05/16 01:31:12;;;;;;;8.98;4.07;;;;;;;14.59;65.19;101353.78;4800357;29;20519;-74
2022/05/16 01:33:37;;;;;;;7.38;3.83;;;;;;;14.58;65.39;101354.75;4784993;29;20062;-75
2022/05/16 01:36:03;;;;;;;6.70;3.50;;;;;;;14.60;65.28;101356.34;4784983;29;20096;-74
2022/05/16 01:38:31;;;;;;;10.32;3.40;;;;;;;14.45;66.00;101360.09;4799829;29;20061;-74
2022/05/16 01:41:18;;;;;;;10.73;3.95;;;;;;;14.49;65.77;101361.63;4783762;29;20229;-74
2022/05/16 01:43:48;;;;;;;10.63;4.40;;;;;;;14.36;66.03;101364.31;4783734;29;20129;-75
2022/05/16 01:46:24;;;;;;;9.98;3.92;;;;;;;14.42;65.65;101365.69;4798885;29;20814;-74
2022/05/16 01:48:51;;;;;;;10.60;3.95;;;;;;;14.50;65.23;101368.72;4799096;29;20679;-74
2022/05/16 01:51:17;;;;;;;9.75;4.20;;;;;;;14.52;65.68;101369.47;4799351;29;20089;-74
2022/05/16 01:53:43;;;;;;;8.38;4.50;;;;;;;14.29;66.38;101357.66;4798406;29;20059;-75
2022/05/16 01:56:09;;;;;;;8.38;4.15;;;;;;;14.18;66.83;101358.41;4798538;29;20042;-73
2022/05/16 01:58:35;;;;;;;10.38;4.60;;;;;;;14.27;66.56;101361.44;4798721;29;20166;-74
2022/05/16 02:01:02;;;;;;;12.13;6.00;;;;;;;14.27;66.59;101353.38;4876847;29;20509;-74
2022/05/16 02:03:28;;;;;;;9.15;4.80;;;;;;;14.20;66.77;101355.63;4895146;29;20076;-74
2022/05/16 02:05:53;;;;;;;11.05;5.10;;;;;;;14.15;67.37;101355.94;4879170;29;20068;-77
2022/05/16 02:08:19;;;;;;;10.13;5.25;;;;;;;14.20;67.03;101358.28;4895378;29;20587;-76
2022/05/16 02:10:46;;;;;;;14.63;5.35;;;;;;;14.10;67.97;101351.84;4901821;29;20048;-75
2022/05/16 02:13:11;;;;;;;8.85;4.47;;;;;;;14.07;67.73;101349.41;4899803;29;20040;-76
2022/05/16 02:15:38;;;;;;;14.05;5.75;;;;;;;14.08;67.68;101337.72;4898894;29;20119;-77
2022/05/16 02:18:05;;;;;;;13.23;5.03;;;;;;;14.19;66.79;101333.31;4898698;29;20486;-75
2022/05/16 02:20:31;;;;;;;12.45;5.32;;;;;;;14.21;66.67;101326.03;4882055;29;20044;-75
2022/05/16 02:25:46;;;;;;;10.00;4.80;;;;;;;14.24;66.90;101323.09;4898055;29;20044;-75
2022/05/16 02:28:16;;;;;;;12.18;5.13;;;;;;;14.35;65.79;101316.97;4898804;29;20376;-76
2022/05/16 02:30:43;;;;;;;11.13;4.65;;;;;;;14.36;66.12;101312.50;4914736;29;20040;-75
2022/05/16 02:33:11;;;;;;;12.60;4.90;;;;;;;14.25;66.39;101314.09;4897718;29;20036;-76
2022/05/16 02:35:37;;;;;;;10.25;4.60;;;;;;;14.24;66.65;101315.06;4882408;29;20046;-76
2022/05/16 02:38:05;;;;;;;9.43;4.88;;;;;;;14.01;68.19;101307.81;4914093;29;20051;-78
2022/05/16 02:40:32;;;;;;;7.72;4.80;;;;;;;14.05;67.52;101311.09;4913634;29;20286;-75
2022/05/16 02:42:58;;;;;;;11.45;5.45;;;;;;;14.02;67.89;101303.28;4913601;29;20044;-76
2022/05/16 02:45:24;;;;;;;8.30;4.65;;;;;;;13.89;68.24;101298.78;4912470;29;20517;-75
2022/05/16 02:47:50;;;;;;;11.57;5.10;;;;;;;13.89;68.36;101298.78;4912037;29;20067;-75
2022/05/16 02:50:16;;;;;;;11.02;4.40;;;;;;;13.78;68.87;101298.66;4895017;29;20059;-76
2022/05/16 02:52:42;;;;;;;11.18;4.60;;;;;;;13.81;68.67;101292.25;4892221;29;20091;-76
2022/05/16 02:55:08;;;;;;;11.18;6.05;;;;;;;13.86;68.42;101288.28;4893582;29;20040;-79
2022/05/16 02:57:33;;;;;;;10.02;5.28;;;;;;;13.88;68.01;101290.84;4876952;29;20122;-76
2022/05/16 02:59:59;;;;;;;13.13;4.95;;;;;;;14.02;67.59;101285.38;4893251;29;20085;-75
2022/05/16 03:02:25;;;;;;;8.65;4.20;;;;;;;13.91;68.37;101285.28;4893688;29;20028;-75
2022/05/16 03:04:52;;;;;;;12.85;5.55;;;;;;;13.74;68.91;101284.59;4876869;29;20044;-76
2022/05/16 03:07:18;;;;;;;12.57;5.35;;;;;;;13.80;68.75;101286.00;4875638;29;20060;-76
2022/05/16 03:09:44;;;;;;;10.35;5.20;;;;;;;13.82;69.04;101289.44;4876721;29;20044;-76
2022/05/16 03:12:10;;;;;;;11.60;5.28;;;;;;;13.59;70.04;101284.81;4909748;29;20044;-75
2022/05/16 03:14:35;;;;;;;12.50;5.93;;;;;;;13.70;69.37;101283.13;4913052;29;20047;-76
2022/05/16 03:17:05;;;;;;;8.95;5.35;;;;;;;13.68;69.36;101281.50;4914768;29;20048;-76
2022/05/16 03:19:30;;;;;;;7.78;4.63;;;;;;;13.59;69.96;101280.31;4883599;29;20055;-75
2022/05/16 03:21:56;;;;;;;9.23;5.22;;;;;;;13.52;70.90;101278.19;4913546;29;20581;-75
2022/05/16 03:24:22;;;;;;;10.57;5.20;;;;;;;13.62;69.22;101282.78;4896777;29;20080;-75
2022/05/16 03:26:48;;;;;;;11.35;5.18;;;;;;;13.63;69.82;101276.47;4927403;29;20051;-77
2022/05/16 03:29:16;;;;;;;9.57;5.47;;;;;;;13.52;70.49;101273.69;4895187;29;20628;-74
2022/05/16 03:31:43;;;;;;;18.35;5.85;;;;;;;13.50;70.32;101267.53;4897181;29;20067;-74
2022/05/16 03:34:10;;;;;;;8.45;4.55;;;;;;;13.61;69.80;101270.38;4914073;29;20481;-74
2022/05/16 03:36:36;;;;;;;11.70;5.15;;;;;;;13.51;70.07;101274.66;4913317;29;20127;-76
2022/05/16 03:41:48;;;;;;;8.20;4.97;;;;;;;13.71;69.30;101270.59;4908983;29;20067;-75
2022/05/16 03:44:14;;;;;;;14.55;5.10;;;;;;;13.65;69.63;101263.81;4881797;29;20048;-76
2022/05/16 03:46:40;;;;;;;8.27;5.07;;;;;;;13.71;69.54;101262.56;4895334;29;20055;-74
2022/05/16 03:49:06;;;;;;;7.68;4.85;;;;;;;13.83;69.13;101266.19;4912109;29;20067;-75
2022/05/16 03:51:32;;;;;;;6.25;4.70;;;;;;;13.83;69.22;101261.69;4912098;29;20693;-75
2022/05/16 03:53:57;;;;;;;14.20;5.68;;;;;;;13.90;69.03;101265.63;4912455;29;20079;-74
2022/05/16 03:56:26;;;;;;;15.57;5.45;;;;;;;13.89;69.20;101263.91;4888066;29;20364;-74
2022/05/16 03:58:52;;;;;;;11.27;5.00;;;;;;;13.95;68.80;101262.63;4913726;29;20123;-74
2022/05/16 04:01:18;;;;;;;11.80;5.38;;;;;;;13.97;69.07;101264.25;4913618;29;20091;-77
2022/05/16 04:03:45;;;;;;;11.88;5.13;;;;;;;14.16;68.15;101263.81;4913117;29;20092;-74
2022/05/16 04:06:11;;;;;;;11.73;5.03;;;;;;;14.08;68.66;101265.31;4883325;29;20120;-74
2022/05/16 04:08:36;;;;;;;13.32;5.65;;;;;;;14.19;68.08;101276.13;4899008;29;20509;-75
2022/05/16 04:11:03;;;;;;;8.63;4.88;;;;;;;13.99;69.12;101274.84;4916539;29;20123;-73
2022/05/16 04:13:29;;;;;;;8.90;4.82;;;;;;;14.05;69.16;101269.03;4900407;29;20689;-76
2022/05/16 04:15:56;;;;;;;7.22;4.93;;;;;;;14.07;69.14;101268.97;4900566;29;20055;-75
2022/05/16 04:18:21;;;;;;;20.38;5.47;;;;;;;14.10;68.69;101268.72;4884221;29;20043;-74
2022/05/16 04:20:47;;;;;;;12.32;4.75;;;;;;;14.08;68.76;101263.47;4899888;29;20166;-77
2022/05/16 04:23:13;;;;;;;14.20;5.75;;;;;;;14.10;68.89;101266.91;4918232;29;20036;-76
2022/05/16 04:25:39;;;;;;;11.27;5.88;;;;;;;14.07;69.47;101264.44;4919839;29;20040;-76
2022/05/16 04:28:06;;;;;;;12.80;4.95;;;;;;;14.23;68.48;101266.88;4902623;29;20047;-76
2022/05/16 04:30:33;;;;;;;11.77;5.20;;;;;;;14.15;68.82;101262.06;4886204;29;20051;-76
2022/05/16 04:32:58;;;;;;;11.52;5.32;;;;;;;14.24;68.40;101263.22;4918795;29;20025;-76
2022/05/16 04:35:25;;;;;;;10.45;5.43;;;;;;;14.32;68.62;101268.91;4918495;29;20051;-76
2022/05/16 04:37:51;;;;;;;8.43;4.65;;;;;;;14.43;68.13;101265.44;4918240;29;20127;-77
2022/05/16 04:40:18;;;;;;;10.40;5.25;;;;;;;14.57;67.83;101261.78;4881937;29;20052;-75
2022/05/16 04:42:44;;;;;;;8.18;5.10;;;;;;;14.69;67.43;101266.25;4897382;29;20043;-75
2022/05/16 04:45:14;;;;;;;9.52;4.63;;;;;;;15.02;66.68;101265.56;4917051;29;20047;-75
2022/05/16 04:47:41;;;;;;;11.40;5.88;;;;;;;16.98;60.83;101266.19;4917259;29;20048;-75
2022/05/16 04:50:08;;;;;;;8.50;4.57;;;;;;;18.19;56.41;101251.22;4919467;29;20044;-75
2022/05/16 04:52:33;;;;;;;13.60;4.68;;;;;;;19.25;54.20;101258.69;4884241;29;20066;-74
2022/05/16 04:55:00;;;;;;;7.78;4.57;;;;;;;19.87;51.89;101242.91;4901652;29;20036;-74
2022/05/16 04:57:26;;;;;;;13.15;5.13;;;;;;;20.01;52.17;101255.13;4918323;29;20147;-74
2022/05/16 04:59:51;;;;;;;10.35;4.35;;;;;;;20.38;49.49;101255.97;4918093;29;20067;-75
2022/05/16 05:02:17;;;;;;;6.82;3.92;;;;;;;20.46;50.16;101257.91;4901967;29;20051;-74
2022/05/16 05:04:44;;;;;;;10.10;4.97;;;;;;;20.26;50.41;101251.72;4914883;29;20036;-74
2022/05/16 05:07:11;;;;;;;7.75;4.40;;;;;;;20.60;48.60;101252.00;4893476;29;20040;-75
2022/05/16 05:15:11;;;;;;;7.50;4.35;;;;;;;21.03;50.57;101249.53;4910646;29;20055;-74
2022/05/16 05:17:37;;;;;;;7.63;4.32;;;;;;;20.55;50.77;101251.63;4909853;29;20142;-75
2022/05/16 05:20:04;;;;;;;8.82;3.97;;;;;;;20.43;49.92;101250.94;4893328;29;20063;-75
2022/05/16 05:22:29;;;;;;;12.07;3.72;;;;;;;20.70;49.40;101251.94;4910525;29;20070;-75
2022/05/16 05:24:55;;;;;;;8.07;4.38;;;;;;;20.78;51.78;101257.44;4911114;29;20079;-75
2022/05/16 05:27:20;;;;;;;4.68;3.45;;;;;;;20.95;49.59;101248.47;4914182;29;20040;-75
2022/05/16 05:29:48;;;;;;;6.90;4.53;;;;;;;21.30;49.37;101245.91;4895588;29;20054;-75
2022/05/16 05:32:14;;;;;;;6.75;4.10;;;;;;;21.16;51.38;101252.72;4915317;29;20052;-75
2022/05/16 05:34:40;;;;;;;8.98;4.95;;;;;;;21.02;49.26;101245.13;4902166;29;20458;-74
2022/05/16 05:37:06;;;;;;;10.98;4.53;;;;;;;21.68;47.31;101250.09;4879461;29;20060;-76
2022/05/16 05:39:31;;;;;;;7.72;3.88;;;;;;;21.72;46.35;101249.63;4899349;29;20044;-75
2022/05/16 05:41:58;;;;;;;9.55;4.18;;;;;;;22.03;47.23;101254.56;4914011;29;20044;-75
2022/05/16 05:44:24;;;;;;;6.05;4.20;;;;;;;21.27;48.68;101268.75;4916218;29;20119;-75
2022/05/16 05:46:49;;;;;;;10.70;5.10;;;;;;;22.05;45.80;101257.97;4916919;29;20088;-75
2022/05/16 05:49:15;;;;;;;7.85;4.18;;;;;;;22.64;44.92;101252.63;4899725;29;20536;-75
2022/05/16 05:51:41;;;;;;;12.20;4.95;;;;;;;22.66;45.47;101256.88;4915994;29;20057;-76
2022/05/16 05:54:07;;;;;;;7.38;4.40;;;;;;;22.97;43.25;101259.88;4894158;29;20048;-75
2022/05/16 05:56:33;;;;;;;7.00;3.75;;;;;;;22.89;44.26;101257.16;4916404;29;20076;-75
2022/05/16 05:58:59;;;;;;;7.15;4.68;;;;;;;23.21;43.00;101261.75;4899638;29;20044;-75
2022/05/16 06:01:25;;;;;;;11.43;4.75;;;;;;;21.84;45.96;101266.53;4916271;29;20048;-75
2022/05/16 06:03:51;;;;;;;9.02;4.30;;;;;;;22.22;45.33;101264.38;4915659;29;20036;-75
2022/05/16 06:06:17;;;;;;;7.22;3.92;;;;;;;21.51;47.93;101256.44;4917498;29;20071;-75
2022/05/16 06:08:43;;;;;;;9.85;4.70;;;;;;;21.48;48.09;101259.47;4898256;29;20052;-74
2022/05/16 06:11:08;;;;;;;9.95;4.20;;;;;;;21.03;49.50;101254.97;4899540;29;20058;-75
2022/05/16 06:13:34;;;;;;;10.95;4.93;;;;;;;21.23;50.81;101256.50;4915048;29;20040;-76
2022/05/16 06:15:59;;;;;;;7.95;4.35;;;;;;;21.02;49.33;101254.13;4898086;29;20051;-76
2022/05/16 06:18:25;;;;;;;11.57;4.57;;;;;;;21.37;49.99;101244.28;4898758;29;20048;-74
2022/05/16 06:20:52;;;;;;;10.82;5.38;;;;;;;21.43;49.97;101239.06;4914917;29;20040;-74
2022/05/16 06:23:17;;;;;;;9.07;4.45;;;;;;;21.79;49.06;101238.13;4914416;29;20044;-75
2022/05/16 06:25:44;;;;;;;12.52;4.43;;;;;;;22.05;47.39;101240.84;4913979;29;20081;-75
2022/05/16 06:28:19;;;;;;;9.95;4.60;;;;;;;22.28;48.63;101241.97;4913304;29;20067;-74
2022/05/16 06:30:47;;;;;;;14.52;5.72;;;;;;;22.41;47.37;101245.09;4914254;29;20067;-73
2022/05/16 06:33:17;;;;;;;10.18;4.25;;;;;;;22.26;45.86;101249.44;4913918;29;20051;-76
2022/05/16 06:35:49;;;;;;;9.95;4.50;;;;;;;21.39;48.40;101245.00;4914002;29;20047;-76
2022/05/16 06:38:16;;;;;;;;;;;;;;;21.37;47.70;101241.56;4896405;29;20059;-75
2022/05/16 06:40:46;;;;;;;8.68;4.75;;;;;;;21.40;49.53;101243.97;4912242;29;19926;-76
2022/05/16 06:43:12;;;;;;;10.13;4.25;;;;;;;21.47;49.48;101234.19;4871497;29;20545;-76
2022/05/16 06:45:39;;;;;;;7.55;4.00;;;;;;;21.55;48.77;101244.25;4877796;29;20047;-75
2022/05/16 06:48:05;;;;;;;7.57;3.85;;;;;;;21.79;48.00;101247.13;4913644;29;20039;-77
2022/05/16 06:50:32;;;;;;;10.13;4.63;;;;;;;21.89;48.03;101253.31;4913449;29;20044;-76
2022/05/16 06:52:58;;;;;;;8.48;4.07;;;;;;;22.25;47.18;101245.03;4896236;29;20072;-76
2022/05/16 06:55:24;;;;;;;8.35;4.03;;;;;;;22.47;48.09;101254.44;4896423;29;20052;-76
2022/05/16 06:57:50;;;;;;;9.73;4.65;;;;;;;22.09;47.96;101264.78;4913649;29;20067;-76
2022/05/16 07:00:16;;;;;;;9.23;3.85;;;;;;;21.85;49.60;101272.78;4914765;29;20072;-76
2022/05/16 07:02:42;;;;;;;8.50;3.78;;;;;;;21.77;48.75;101284.44;4914938;29;20040;-76
2022/05/16 07:05:08;;;;;;;7.88;4.15;;;;;;;21.69;48.25;101293.41;4897484;29;20048;-75
2022/05/16 07:07:34;;;;;;;7.40;3.92;;;;;;;21.87;50.66;101290.63;4914054;29;20090;-76
2022/05/16 07:10:00;;;;;;;8.25;3.90;;;;;;;22.18;49.41;101291.00;4913915;29;20040;-75
2022/05/16 07:12:26;;;;;;;7.82;3.85;;;;;;;21.94;50.54;101299.00;4913666;29;20056;-75
2022/05/16 07:14:52;;;;;;;8.68;3.90;;;;;;;21.50;50.42;101292.72;4914099;29;20754;-76
2022/05/16 07:17:17;;;;;;;9.15;3.90;;;;;;;21.64;49.30;101297.59;4913947;29;20967;-75
2022/05/16 07:19:43;;;;;;;5.65;3.58;;;;;;;21.75;50.21;101310.06;4897486;29;20044;-75
2022/05/16 07:22:19;;;;;;;9.20;3.97;;;;;;;22.04;49.52;101307.88;4914657;29;20043;-75
2022/05/16 07:24:45;;;;;;;8.57;4.20;;;;;;;22.72;48.72;101310.59;4916425;29;20056;-76
2022/05/16 07:29:56;;;;;;;9.02;4.50;;;;;;;22.97;49.85;101313.41;4915358;29;20122;-76
2022/05/16 07:32:22;;;;;;;8.88;3.83;;;;;;;23.07;47.15;101314.13;4915198;29;20036;-76
2022/05/16 07:34:48;;;;;;;5.57;3.42;;;;;;;22.44;48.23;101317.28;4914697;29;20044;-76
2022/05/16 07:37:14;;;;;;;5.97;3.45;;;;;;;22.30;48.70;101323.34;4914647;29;20047;-76
2022/05/16 07:39:39;;;;;;;8.93;3.88;;;;;;;22.27;48.96;101320.94;4916796;29;20051;-76
2022/05/16 07:42:08;;;;;;;8.15;4.18;;;;;;;22.21;49.44;101317.84;4901144;29;20070;-77
2022/05/16 07:44:35;;;;;;;8.88;4.82;;;;;;;22.20;50.03;101320.75;4918538;29;20044;-76
2022/05/16 07:47:02;;;;;;;10.02;4.30;;;;;;;21.80;51.17;101327.56;4885688;29;20067;-76
2022/05/16 07:49:27;;;;;;;7.95;4.13;;;;;;;21.81;50.79;101334.72;4919367;29;20044;-76
2022/05/16 07:51:53;;;;;;;10.23;4.53;;;;;;;21.62;51.16;101330.31;4920658;29;20046;-76
2022/05/16 07:54:19;;;;;;;11.18;4.10;;;;;;;21.67;52.79;101337.97;4920761;29;20064;-76
2022/05/16 07:56:44;;;;;;;6.72;4.53;;;;;;;21.38;53.41;101335.53;4903531;29;20047;-76
2022/05/16 07:59:10;;;;;;;9.45;4.03;;;;;;;21.09;57.20;101346.59;4922777;29;20127;-76
2022/05/16 08:01:36;;;;;;;10.38;4.90;;;;;;;21.04;58.59;101348.91;4906309;29;20588;-76
2022/05/16 08:04:06;;;;;;;9.70;5.70;;;;;;;21.15;58.88;101354.94;4906342;29;20052;-76
2022/05/16 08:06:33;;;;;;;13.63;5.63;;;;;;;21.42;57.70;101353.19;4905904;29;20048;-76
2022/05/16 08:11:43;;;;;;;9.40;5.00;;;;;;;21.46;57.80;101355.44;4919165;29;20063;-76
2022/05/16 08:14:08;;;;;;;13.55;6.57;;;;;;;21.64;56.40;101351.91;4902525;29;20071;-75
2022/05/16 08:16:34;;;;;;;16.90;6.05;;;;;;;21.44;57.47;101352.06;4920331;29;20073;-76
2022/05/16 08:19:03;;;;;;;8.23;5.22;;;;;;;21.57;57.51;101353.50;4901872;29;20051;-76
2022/05/16 08:21:30;;;;;;;12.40;5.95;;;;;;;21.29;59.62;101359.00;4909430;29;20040;-76
2022/05/16 08:23:55;;;;;;;8.90;5.20;;;;;;;21.26;60.02;101348.44;4922330;29;20074;-76
2022/05/16 08:26:21;;;;;;;9.23;5.30;;;;;;;21.54;61.55;101354.69;4920263;29;20047;-76
2022/05/16 08:28:46;;;;;;;12.93;5.47;;;;;;;21.44;60.21;101353.91;4902050;29;20123;-75
2022/05/16 08:31:13;;;;;;;11.25;5.43;;;;;;;21.49;61.71;101361.56;4917178;29;20050;-76
2022/05/16 08:33:40;;;;;;;8.02;5.75;;;;;;;21.91;61.56;101349.03;4916295;29;20044;-76
2022/05/16 08:41:59;;;;;;;7.78;4.95;;;;;;;22.25;58.95;101348.28;4901886;29;20052;-76
2022/05/16 08:44:40;;;;;;;11.70;5.65;;;;;;;22.84;58.02;101341.09;4900684;29;20092;-76
2022/05/16 08:47:35;;;;;;;10.95;5.63;;;;;;;22.60;57.32;101350.00;4916479;29;20055;-76
2022/05/16 08:50:11;;;;;;;8.15;4.78;;;;;;;23.15;57.21;101349.53;4897085;29;20596;-76
2022/05/16 08:52:43;;;;;;;8.60;5.10;;;;;;;22.88;56.76;101347.03;4897510;29;20048;-76
2022/05/16 08:55:20;;;;;;;;;;;;;;;23.34;56.55;101350.22;4915987;29;20095;-75
2022/05/16 08:57:50;;;;;;;7.90;4.55;;;;;;;23.50;57.10;101355.69;4882050;29;19923;-78
2022/05/16 09:00:44;;;;;;;7.65;5.03;;;;;;;23.18;56.37;101359.22;4915710;29;20048;-76
2022/05/16 09:03:17;;;;;;;6.57;4.07;;;;;;;23.31;54.43;101358.72;4915259;29;20040;-76
2022/05/16 09:05:51;;;;;;;7.95;5.45;;;;;;;23.73;55.48;101364.91;4916204;29;20036;-76
2022/05/16 09:08:42;;;;;;;9.10;4.93;;;;;;;23.80;53.83;101369.66;4914416;29;20064;-76
2022/05/16 09:11:16;;;;;;;7.70;4.95;;;;;;;23.51;56.94;101362.84;4914102;29;20104;-76
2022/05/16 09:13:47;;;;;;;10.57;5.45;;;;;;;23.68;55.29;101367.28;4895110;29;20040;-76
2022/05/16 09:16:35;;;;;;;10.45;6.13;;;;;;;23.84;54.76;101369.16;4912133;29;20052;-77
2022/05/16 09:19:23;;;;;;;9.30;5.55;;;;;;;23.37;56.05;101368.94;4895374;29;20076;-76
2022/05/16 09:22:07;;;;;;;7.35;5.57;;;;;;;23.82;55.76;101364.91;4912816;29;20747;-76
2022/05/16 09:24:44;;;;;;;7.15;5.60;;;;;;;24.17;54.27;101367.25;4912026;29;20048;-76
2022/05/16 09:27:13;;;;;;;9.07;5.45;;;;;;;24.11;55.38;101362.50;4894971;29;20063;-76
2022/05/16 09:29:45;;;;;;;6.72;5.43;;;;;;;24.08;55.23;101359.25;4895120;29;20505;-76
2022/05/16 09:32:31;;;;;;;11.20;5.15;;;;;;;24.40;53.70;101363.81;4895365;29;20095;-76
2022/05/16 09:34:57;;;;;;;6.53;5.38;;;;;;;24.21;54.63;101368.63;4910792;29;20138;-76
2022/05/16 09:37:23;;;;;;;9.27;5.50;;;;;;;24.07;55.31;101372.03;4878991;29;20040;-76
2022/05/16 09:39:50;;;;;;;7.55;5.43;;;;;;;24.06;53.83;101370.34;4896040;29;20176;-76
2022/05/16 09:42:23;;;;;;;10.85;5.63;;;;;;;24.27;53.94;101367.06;4911678;29;20127;-76
2022/05/16 09:45:04;;;;;;;6.53;5.13;;;;;;;23.91;56.23;101374.78;4926910;29;20129;-76
2022/05/16 09:47:30;;;;;;;7.75;5.28;;;;;;;24.64;54.27;101361.00;4895167;29;20564;-76
2022/05/16 09:50:20;;;;;;;6.15;5.25;;;;;;;24.89;52.11;101366.34;4909376;29;20139;-76
2022/05/16 09:53:09;;;;;;;9.32;5.22;;;;;;;25.48;51.07;101362.09;4892963;29;20051;-76
2022/05/16 09:55:54;;;;;;;10.88;4.90;;;;;;;25.12;51.36;101350.91;4909947;29;20051;-76
2022/05/16 09:58:30;;;;;;;8.60;5.30;;;;;;;25.03;50.91;101361.00;4893346;29;20048;-76
2022/05/16 10:01:02;;;;;;;7.38;5.05;;;;;;;25.71;50.27;101358.53;4892968;29;20595;-75
2022/05/16 10:03:43;;;;;;;8.55;4.43;;;;;;;26.24;48.66;101367.59;4909707;29;20588;-76
2022/05/16 10:06:31;;;;;;;8.90;5.15;;;;;;;26.07;50.08;101361.47;4892944;29;20047;-76
2022/05/16 10:09:06;;;;;;;5.95;4.07;;;;;;;26.46;48.56;101358.50;4910879;29;20098;-76
2022/05/16 10:11:33;;;;;;;6.22;4.60;;;;;;;26.52;46.21;101360.47;4909653;29;20210;-76
2022/05/16 10:13:58;;;;;;;8.10;4.95;;;;;;;26.19;46.30;101364.56;4891763;29;20693;-75
2022/05/16 10:16:28;;;;;;;5.95;4.57;;;;;;;27.82;47.57;101370.66;4892492;29;20040;-76
2022/05/16 10:19:11;;;;;;;7.38;5.25;;;;;;;27.69;44.26;101379.56;4909371;29;20107;-77
2022/05/16 10:21:41;;;;;;;6.07;4.60;;;;;;;27.75;45.13;101377.94;4891861;29;20048;-76
2022/05/16 10:24:11;;;;;;;5.57;4.40;;;;;;;26.87;45.09;101382.63;4891956;29;20047;-76
2022/05/16 10:26:44;;;;;;;9.75;5.55;;;;;;;26.80;45.39;101378.94;4891899;29;20062;-76
2022/05/16 10:29:38;;;;;;;7.43;5.00;;;;;;;26.65;45.31;101378.09;4910834;29;20119;-76
2022/05/16 10:34:56;;;;;;;8.55;5.50;;;;;;;26.75;45.57;101379.50;4892900;29;20059;-76
2022/05/16 10:37:22;;;;;;;6.72;5.30;;;;;;;27.05;46.02;101383.03;4909682;29;20139;-76
2022/05/16 10:40:04;;;;;;;6.30;4.82;;;;;;;27.77;45.72;101386.84;4910143;29;20051;-76
2022/05/16 10:42:38;;;;;;;10.10;5.05;;;;;;;28.28;43.65;101387.44;4909453;29;20135;-76
2022/05/16 10:45:10;;;;;;;10.90;4.97;;;;;;;27.91;44.63;101396.00;4909584;29;20059;-75
2022/05/16 10:47:57;;;;;;;7.38;5.38;;;;;;;27.76;43.64;101386.00;4892322;29;20062;-76
2022/05/16 10:50:33;;;;;;;7.00;5.55;;;;;;;27.36;45.64;101387.41;4924152;29;20051;-76
2022/05/16 10:53:10;;;;;;;8.38;5.88;;;;;;;27.44;44.65;101392.78;4910071;29;20044;-76
2022/05/16 10:55:51;;;;;;;8.25;5.80;;;;;;;27.82;45.71;101390.69;4909386;29;20047;-76
2022/05/16 10:58:48;;;;;;;5.30;4.80;;;;;;;28.19;44.76;101385.06;4876071;29;20048;-76
2022/05/16 11:01:21;;;;;;;8.38;6.10;;;;;;;27.54;44.26;101382.34;4909614;29;20075;-76
2022/05/16 11:04:16;;;;;;;8.52;5.57;;;;;;;27.48;44.85;101388.63;4877758;29;20056;-76
2022/05/16 11:06:54;;;;;;;9.75;5.80;;;;;;;28.22;43.97;101379.19;4891965;29;20044;-76
2022/05/16 11:09:50;;;;;;;8.88;5.75;;;;;;;28.19;43.23;101368.59;4908442;29;20556;-76
2022/05/16 11:12:52;;;;;;;7.70;5.75;;;;;;;27.62;42.86;101382.25;4908318;29;20044;-76
2022/05/16 11:15:31;;;;;;;7.35;5.35;;;;;;;27.42;44.15;101385.81;4894748;29;20047;-76
2022/05/16 11:18:05;;;;;;;6.88;5.80;;;;;;;27.30;45.26;101390.94;4915834;29;20100;-76
2022/05/16 11:20:38;;;;;;;8.40;5.85;;;;;;;27.50;42.78;101386.53;4906864;29;20063;-76
2022/05/16 11:23:41;;;;;;;7.75;4.80;;;;;;;28.01;44.09;101386.38;4895425;29;20044;-76
2022/05/16 11:26:34;;;;;;;4.97;4.50;;;;;;;27.85;42.68;101389.41;4792307;29;20063;-77
2022/05/16 11:29:23;;;;;;;7.28;5.03;;;;;;;28.42;44.52;101391.16;4821173;29;20057;-77
2022/05/16 11:31:58;;;;;;;7.72;5.05;;;;;;;28.45;42.96;101395.38;4804994;29;20559;-76
2022/05/16 11:34:43;;;;;;;8.13;4.90;;;;;;;28.36;45.74;101395.53;4822880;29;20091;-76
2022/05/16 11:37:37;;;;;;;7.25;5.68;;;;;;;28.72;42.89;101393.66;4822977;29;20157;-76
2022/05/16 11:40:30;;;;;;;7.53;5.85;;;;;;;27.46;43.51;101392.59;4821434;29;20058;-76
2022/05/16 11:43:06;;;;;;;6.55;5.72;;;;;;;27.02;43.53;101393.56;4803273;29;20180;-76
2022/05/16 11:45:59;;;;;;;10.10;5.18;;;;;;;27.34;43.73;101398.59;4819098;29;20206;-77
2022/05/16 11:48:52;;;;;;;6.40;5.60;;;;;;;26.76;45.51;101397.66;4788889;29;20074;-76
2022/05/16 11:51:28;;;;;;;12.50;6.00;;;;;;;26.74;46.38;101398.84;4818834;29;20087;-76
2022/05/16 11:53:58;;;;;;;10.27;6.30;;;;;;;26.40;46.15;101405.69;4803197;29;20556;-77
2022/05/16 12:02:35;;;;;;;9.43;6.13;;;;;;;25.80;48.38;101423.88;4809512;29;20054;-76
2022/05/16 12:05:00;;;;;;;11.80;6.35;;;;;;;25.16;49.80;101436.88;4914500;29;20051;-76
2022/05/16 12:07:35;;;;;;;7.80;6.22;;;;;;;24.89;53.00;101446.34;4914773;29;20036;-76
2022/05/16 12:10:09;;;;;;;9.00;6.10;;;;;;;24.28;56.56;101445.94;4898615;29;20055;-77